KLOU/LOU METAR and TAF weather

Enter ICAO airport designator
Station Type Date Time Source
KLOU METAR 2019/02/21 11:35 UTC NOAA

KLOU 211135Z AUTO 32003KT 3SM BR CLR M01/M01 A3016 RMK AO2 T10061011


Station Type Date Time Source
KLOU Decoded METAR 2019/02/21 11:35 UTC NOAA

BOWMAN FIELD, KY, United States (KLOU) 38-14N 085-40W 164M
Feb 21, 2019 - 06:35 AM EST / 2019.02.21 1135 UTC
Wind: from the NW (320 degrees) at 3 MPH (3 KT):0
Visibility: 3 mile(s):0
Sky conditions: clear
Weather: mist
Temperature: 30.9 F (-0.6 C)
Dew Point: 30.0 F (-1.1 C)
Relative Humidity: 96%
Pressure (altimeter): 30.16 in. Hg (1021 hPa)
ob: KLOU 211135Z AUTO 32003KT 3SM BR CLR M01/M01 A3016 RMK AO2 T10061011
cycle: 11

Station Type Date Time Source
KLOU TAF UTC NOAA

Error!


Example: see airport list